sensor_id;sensor_type;location;lat;lon;timestamp;P1;durP1;ratioP1;P2;durP2;ratioP2
62268;SDS011;56517;51.634;5.566;2022-10-31T00:02:54;25.85;;;15.50;;
62268;SDS011;56517;51.634;5.566;2022-10-31T00:07:56;24.73;;;12.48;;
62268;SDS011;56517;51.634;5.566;2022-10-31T00:12:57;20.35;;;13.05;;
62268;SDS011;56517;51.634;5.566;2022-10-31T00:17:58;23.85;;;13.88;;
62268;SDS011;56517;51.634;5.566;2022-10-31T00:23:00;26.35;;;14.23;;
62268;SDS011;56517;51.634;5.566;2022-10-31T00:28:01;26.85;;;13.77;;
62268;SDS011;56517;51.634;5.566;2022-10-31T00:33:02;26.50;;;14.25;;
62268;SDS011;56517;51.634;5.566;2022-10-31T00:38:04;26.05;;;13.43;;
62268;SDS011;56517;51.634;5.566;2022-10-31T00:43:05;26.42;;;15.32;;
62268;SDS011;56517;51.634;5.566;2022-10-31T00:48:05;23.85;;;13.60;;
62268;SDS011;56517;51.634;5.566;2022-10-31T00:53:07;23.30;;;13.02;;
62268;SDS011;56517;51.634;5.566;2022-10-31T00:58:08;25.98;;;12.88;;
62268;SDS011;56517;51.634;5.566;2022-10-31T01:03:10;31.20;;;13.00;;
62268;SDS011;56517;51.634;5.566;2022-10-31T01:08:12;24.00;;;13.27;;
62268;SDS011;56517;51.634;5.566;2022-10-31T01:13:12;25.48;;;14.05;;
62268;SDS011;56517;51.634;5.566;2022-10-31T01:18:13;23.35;;;14.07;;
62268;SDS011;56517;51.634;5.566;2022-10-31T01:23:15;19.92;;;12.82;;
62268;SDS011;56517;51.634;5.566;2022-10-31T01:28:15;19.13;;;11.63;;
62268;SDS011;56517;51.634;5.566;2022-10-31T01:33:16;17.10;;;10.77;;
62268;SDS011;56517;51.634;5.566;2022-10-31T01:38:18;16.30;;;10.70;;
62268;SDS011;56517;51.634;5.566;2022-10-31T01:43:18;20.60;;;11.48;;
62268;SDS011;56517;51.634;5.566;2022-10-31T01:48:20;23.38;;;14.13;;
62268;SDS011;56517;51.634;5.566;2022-10-31T01:53:22;24.35;;;13.38;;
62268;SDS011;56517;51.634;5.566;2022-10-31T01:58:24;25.35;;;13.18;;
62268;SDS011;56517;51.634;5.566;2022-10-31T02:03:25;22.33;;;12.07;;
62268;SDS011;56517;51.634;5.566;2022-10-31T02:08:28;19.45;;;10.93;;
62268;SDS011;56517;51.634;5.566;2022-10-31T02:13:28;16.02;;;10.88;;
62268;SDS011;56517;51.634;5.566;2022-10-31T02:18:29;15.88;;;10.00;;
62268;SDS011;56517;51.634;5.566;2022-10-31T02:23:39;16.90;;;10.75;;
62268;SDS011;56517;51.634;5.566;2022-10-31T02:28:50;21.35;;;12.13;;
62268;SDS011;56517;51.634;5.566;2022-10-31T02:33:55;17.17;;;12.18;;
62268;SDS011;56517;51.634;5.566;2022-10-31T02:39:01;18.70;;;11.65;;
62268;SDS011;56517;51.634;5.566;2022-10-31T02:44:05;21.02;;;11.43;;
62268;SDS011;56517;51.634;5.566;2022-10-31T02:49:11;17.52;;;11.00;;
62268;SDS011;56517;51.634;5.566;2022-10-31T02:54:17;17.48;;;10.82;;
62268;SDS011;56517;51.634;5.566;2022-10-31T02:59:18;16.15;;;10.95;;
62268;SDS011;56517;51.634;5.566;2022-10-31T03:04:30;15.60;;;10.80;;
62268;SDS011;56517;51.634;5.566;2022-10-31T03:09:34;16.65;;;10.43;;
62268;SDS011;56517;51.634;5.566;2022-10-31T03:14:38;23.08;;;12.07;;
62268;SDS011;56517;51.634;5.566;2022-10-31T03:19:43;21.42;;;12.30;;
62268;SDS011;56517;51.634;5.566;2022-10-31T03:24:43;16.05;;;10.75;;
62268;SDS011;56517;51.634;5.566;2022-10-31T03:29:45;20.25;;;12.48;;
62268;SDS011;56517;51.634;5.566;2022-10-31T03:34:48;19.70;;;12.13;;
62268;SDS011;56517;51.634;5.566;2022-10-31T03:39:49;23.48;;;12.10;;
62268;SDS011;56517;51.634;5.566;2022-10-31T03:44:51;21.40;;;12.27;;
62268;SDS011;56517;51.634;5.566;2022-10-31T03:49:55;23.30;;;12.40;;
62268;SDS011;56517;51.634;5.566;2022-10-31T03:54:56;20.55;;;12.00;;
62268;SDS011;56517;51.634;5.566;2022-10-31T03:59:59;21.38;;;11.13;;
62268;SDS011;56517;51.634;5.566;2022-10-31T04:05:02;18.98;;;10.77;;
62268;SDS011;56517;51.634;5.566;2022-10-31T04:10:04;22.92;;;12.77;;
62268;SDS011;56517;51.634;5.566;2022-10-31T04:15:05;20.63;;;11.57;;
62268;SDS011;56517;51.634;5.566;2022-10-31T04:20:08;23.10;;;13.02;;
62268;SDS011;56517;51.634;5.566;2022-10-31T04:25:09;21.27;;;11.52;;
62268;SDS011;56517;51.634;5.566;2022-10-31T04:30:10;22.58;;;11.20;;
62268;SDS011;56517;51.634;5.566;2022-10-31T04:35:12;16.45;;;10.05;;
62268;SDS011;56517;51.634;5.566;2022-10-31T04:40:12;17.35;;;9.55;;
62268;SDS011;56517;51.634;5.566;2022-10-31T04:45:13;18.67;;;10.95;;
62268;SDS011;56517;51.634;5.566;2022-10-31T04:50:15;13.57;;;9.88;;
62268;SDS011;56517;51.634;5.566;2022-10-31T04:55:16;18.20;;;10.98;;
62268;SDS011;56517;51.634;5.566;2022-10-31T05:00:17;20.08;;;11.27;;
62268;SDS011;56517;51.634;5.566;2022-10-31T05:05:20;16.98;;;10.95;;
62268;SDS011;56517;51.634;5.566;2022-10-31T05:10:22;16.85;;;11.13;;
62268;SDS011;56517;51.634;5.566;2022-10-31T05:15:24;18.80;;;10.63;;
62268;SDS011;56517;51.634;5.566;2022-10-31T05:20:27;18.52;;;9.88;;
62268;SDS011;56517;51.634;5.566;2022-10-31T05:25:28;17.40;;;10.65;;
62268;SDS011;56517;51.634;5.566;2022-10-31T05:30:29;12.27;;;9.20;;
62268;SDS011;56517;51.634;5.566;2022-10-31T05:35:32;17.08;;;9.50;;
62268;SDS011;56517;51.634;5.566;2022-10-31T05:40:33;27.38;;;11.68;;
62268;SDS011;56517;51.634;5.566;2022-10-31T05:45:33;19.73;;;11.13;;
62268;SDS011;56517;51.634;5.566;2022-10-31T05:50:35;18.65;;;11.85;;
62268;SDS011;56517;51.634;5.566;2022-10-31T05:55:36;20.08;;;12.40;;
62268;SDS011;56517;51.634;5.566;2022-10-31T06:00:36;19.10;;;11.95;;
62268;SDS011;56517;51.634;5.566;2022-10-31T06:05:38;21.63;;;12.10;;
62268;SDS011;56517;51.634;5.566;2022-10-31T06:10:39;22.05;;;13.00;;
62268;SDS011;56517;51.634;5.566;2022-10-31T06:15:40;22.83;;;13.35;;
62268;SDS011;56517;51.634;5.566;2022-10-31T06:20:42;24.38;;;13.27;;
62268;SDS011;56517;51.634;5.566;2022-10-31T06:25:43;23.30;;;13.35;;
62268;SDS011;56517;51.634;5.566;2022-10-31T06:30:48;41.72;;;12.80;;
62268;SDS011;56517;51.634;5.566;2022-10-31T06:35:50;27.40;;;14.68;;
62268;SDS011;56517;51.634;5.566;2022-10-31T06:40:50;23.13;;;13.43;;
62268;SDS011;56517;51.634;5.566;2022-10-31T06:45:51;34.03;;;14.48;;
62268;SDS011;56517;51.634;5.566;2022-10-31T06:50:53;38.38;;;14.38;;
62268;SDS011;56517;51.634;5.566;2022-10-31T06:55:54;42.50;;;14.43;;
62268;SDS011;56517;51.634;5.566;2022-10-31T07:00:55;39.92;;;14.35;;
62268;SDS011;56517;51.634;5.566;2022-10-31T07:05:59;47.17;;;15.95;;
62268;SDS011;56517;51.634;5.566;2022-10-31T07:11:00;31.65;;;14.73;;
62268;SDS011;56517;51.634;5.566;2022-10-31T07:16:02;29.85;;;14.85;;
62268;SDS011;56517;51.634;5.566;2022-10-31T07:21:04;27.55;;;14.75;;
62268;SDS011;56517;51.634;5.566;2022-10-31T07:26:05;32.08;;;15.52;;
62268;SDS011;56517;51.634;5.566;2022-10-31T07:31:05;26.38;;;15.48;;
62268;SDS011;56517;51.634;5.566;2022-10-31T07:36:07;27.77;;;14.63;;
62268;SDS011;56517;51.634;5.566;2022-10-31T07:41:08;30.25;;;15.43;;
62268;SDS011;56517;51.634;5.566;2022-10-31T07:46:09;29.02;;;15.65;;
62268;SDS011;56517;51.634;5.566;2022-10-31T07:51:10;25.27;;;15.52;;
62268;SDS011;56517;51.634;5.566;2022-10-31T07:56:11;28.65;;;16.15;;
62268;SDS011;56517;51.634;5.566;2022-10-31T08:01:12;27.27;;;17.40;;
62268;SDS011;56517;51.634;5.566;2022-10-31T08:06:13;26.67;;;15.88;;
62268;SDS011;56517;51.634;5.566;2022-10-31T08:11:14;26.10;;;16.63;;
62268;SDS011;56517;51.634;5.566;2022-10-31T08:16:15;29.70;;;18.20;;
62268;SDS011;56517;51.634;5.566;2022-10-31T08:21:17;36.40;;;19.50;;
62268;SDS011;56517;51.634;5.566;2022-10-31T08:26:18;52.67;;;25.70;;
62268;SDS011;56517;51.634;5.566;2022-10-31T08:31:18;43.20;;;24.05;;
62268;SDS011;56517;51.634;5.566;2022-10-31T08:36:20;54.60;;;29.02;;
62268;SDS011;56517;51.634;5.566;2022-10-31T08:41:21;61.75;;;29.90;;
62268;SDS011;56517;51.634;5.566;2022-10-31T08:46:21;55.45;;;25.40;;
62268;SDS011;56517;51.634;5.566;2022-10-31T08:51:23;44.97;;;21.67;;
62268;SDS011;56517;51.634;5.566;2022-10-31T08:56:24;36.17;;;20.40;;
62268;SDS011;56517;51.634;5.566;2022-10-31T09:01:24;36.30;;;17.98;;
62268;SDS011;56517;51.634;5.566;2022-10-31T09:06:26;34.58;;;18.35;;
62268;SDS011;56517;51.634;5.566;2022-10-31T09:11:27;43.67;;;20.67;;
62268;SDS011;56517;51.634;5.566;2022-10-31T09:16:29;37.30;;;19.65;;
62268;SDS011;56517;51.634;5.566;2022-10-31T09:21:31;40.05;;;19.27;;
62268;SDS011;56517;51.634;5.566;2022-10-31T09:26:32;37.63;;;20.65;;
62268;SDS011;56517;51.634;5.566;2022-10-31T09:31:33;37.53;;;20.73;;
62268;SDS011;56517;51.634;5.566;2022-10-31T09:36:35;44.00;;;22.33;;
62268;SDS011;56517;51.634;5.566;2022-10-31T09:41:42;41.30;;;22.30;;
62268;SDS011;56517;51.634;5.566;2022-10-31T09:46:47;39.05;;;22.38;;
62268;SDS011;56517;51.634;5.566;2022-10-31T09:51:55;49.97;;;23.92;;
62268;SDS011;56517;51.634;5.566;2022-10-31T09:56:58;51.42;;;23.33;;
62268;SDS011;56517;51.634;5.566;2022-10-31T10:02:00;44.10;;;21.85;;
62268;SDS011;56517;51.634;5.566;2022-10-31T10:07:05;48.13;;;24.50;;
62268;SDS011;56517;51.634;5.566;2022-10-31T10:12:09;47.03;;;23.83;;
62268;SDS011;56517;51.634;5.566;2022-10-31T10:17:18;50.88;;;23.80;;
62268;SDS011;56517;51.634;5.566;2022-10-31T10:22:25;53.13;;;27.42;;
62268;SDS011;56517;51.634;5.566;2022-10-31T10:27:34;48.47;;;26.77;;
62268;SDS011;56517;51.634;5.566;2022-10-31T10:32:40;51.67;;;25.57;;
62268;SDS011;56517;51.634;5.566;2022-10-31T10:37:44;42.13;;;22.67;;
62268;SDS011;56517;51.634;5.566;2022-10-31T10:42:50;48.95;;;26.27;;
62268;SDS011;56517;51.634;5.566;2022-10-31T10:47:56;42.65;;;22.67;;
62268;SDS011;56517;51.634;5.566;2022-10-31T10:53:01;47.15;;;24.80;;
62268;SDS011;56517;51.634;5.566;2022-10-31T10:58:06;49.22;;;24.42;;
62268;SDS011;56517;51.634;5.566;2022-10-31T11:03:08;51.05;;;23.00;;
62268;SDS011;56517;51.634;5.566;2022-10-31T11:08:10;46.95;;;23.60;;
62268;SDS011;56517;51.634;5.566;2022-10-31T11:13:20;42.40;;;24.75;;
62268;SDS011;56517;51.634;5.566;2022-10-31T11:18:22;50.75;;;24.92;;
62268;SDS011;56517;51.634;5.566;2022-10-31T11:23:25;48.30;;;24.83;;
62268;SDS011;56517;51.634;5.566;2022-10-31T11:28:25;50.38;;;27.25;;
62268;SDS011;56517;51.634;5.566;2022-10-31T11:33:28;50.40;;;24.80;;
62268;SDS011;56517;51.634;5.566;2022-10-31T11:38:33;41.28;;;22.95;;
62268;SDS011;56517;51.634;5.566;2022-10-31T11:43:34;46.22;;;23.48;;
62268;SDS011;56517;51.634;5.566;2022-10-31T11:48:34;46.90;;;22.25;;
62268;SDS011;56517;51.634;5.566;2022-10-31T11:53:37;45.83;;;25.05;;
62268;SDS011;56517;51.634;5.566;2022-10-31T11:58:38;45.63;;;23.25;;
62268;SDS011;56517;51.634;5.566;2022-10-31T12:03:42;37.72;;;20.77;;
62268;SDS011;56517;51.634;5.566;2022-10-31T12:08:45;39.95;;;22.67;;
62268;SDS011;56517;51.634;5.566;2022-10-31T12:13:50;38.38;;;22.17;;
62268;SDS011;56517;51.634;5.566;2022-10-31T12:18:56;39.25;;;19.27;;
62268;SDS011;56517;51.634;5.566;2022-10-31T12:24:01;37.28;;;20.52;;
62268;SDS011;56517;51.634;5.566;2022-10-31T12:29:07;41.25;;;19.45;;
62268;SDS011;56517;51.634;5.566;2022-10-31T12:39:28;35.25;;;18.70;;
62268;SDS011;56517;51.634;5.566;2022-10-31T12:44:38;34.05;;;16.73;;
62268;SDS011;56517;51.634;5.566;2022-10-31T12:49:43;32.88;;;17.00;;
62268;SDS011;56517;51.634;5.566;2022-10-31T12:54:55;30.83;;;16.38;;
62268;SDS011;56517;51.634;5.566;2022-10-31T12:59:59;28.85;;;14.40;;
62268;SDS011;56517;51.634;5.566;2022-10-31T13:05:02;28.98;;;14.57;;
62268;SDS011;56517;51.634;5.566;2022-10-31T13:10:07;29.20;;;12.93;;
62268;SDS011;56517;51.634;5.566;2022-10-31T13:15:12;27.85;;;14.63;;
62268;SDS011;56517;51.634;5.566;2022-10-31T13:20:16;29.40;;;14.20;;
62268;SDS011;56517;51.634;5.566;2022-10-31T13:25:20;24.13;;;12.88;;
62268;SDS011;56517;51.634;5.566;2022-10-31T13:30:22;24.48;;;12.85;;
62268;SDS011;56517;51.634;5.566;2022-10-31T13:35:25;26.48;;;12.00;;
62268;SDS011;56517;51.634;5.566;2022-10-31T13:40:32;23.90;;;13.05;;
62268;SDS011;56517;51.634;5.566;2022-10-31T13:45:34;24.50;;;12.27;;
62268;SDS011;56517;51.634;5.566;2022-10-31T13:50:34;30.48;;;13.02;;
62268;SDS011;56517;51.634;5.566;2022-10-31T13:55:37;26.65;;;11.45;;
62268;SDS011;56517;51.634;5.566;2022-10-31T14:00:37;23.73;;;11.30;;
62268;SDS011;56517;51.634;5.566;2022-10-31T14:05:38;26.30;;;13.52;;
62268;SDS011;56517;51.634;5.566;2022-10-31T14:10:45;25.83;;;11.65;;
62268;SDS011;56517;51.634;5.566;2022-10-31T14:15:52;26.15;;;11.65;;
62268;SDS011;56517;51.634;5.566;2022-10-31T14:20:52;25.00;;;13.57;;
62268;SDS011;56517;51.634;5.566;2022-10-31T14:25:54;28.85;;;13.07;;
62268;SDS011;56517;51.634;5.566;2022-10-31T14:31:21;28.80;;;13.63;;
62268;SDS011;56517;51.634;5.566;2022-10-31T14:36:28;28.42;;;14.90;;
62268;SDS011;56517;51.634;5.566;2022-10-31T14:41:37;30.52;;;14.77;;
62268;SDS011;56517;51.634;5.566;2022-10-31T14:46:43;31.70;;;12.60;;
62268;SDS011;56517;51.634;5.566;2022-10-31T14:51:45;26.80;;;15.05;;
62268;SDS011;56517;51.634;5.566;2022-10-31T14:56:49;30.27;;;14.50;;
62268;SDS011;56517;51.634;5.566;2022-10-31T15:01:56;28.38;;;13.65;;
62268;SDS011;56517;51.634;5.566;2022-10-31T15:06:59;25.35;;;13.32;;
62268;SDS011;56517;51.634;5.566;2022-10-31T15:12:16;27.88;;;13.07;;
62268;SDS011;56517;51.634;5.566;2022-10-31T15:17:21;24.23;;;12.90;;
62268;SDS011;56517;51.634;5.566;2022-10-31T15:22:23;26.77;;;14.07;;
62268;SDS011;56517;51.634;5.566;2022-10-31T15:27:25;28.27;;;14.50;;
62268;SDS011;56517;51.634;5.566;2022-10-31T15:32:26;25.50;;;13.00;;
62268;SDS011;56517;51.634;5.566;2022-10-31T15:37:27;28.20;;;13.50;;
62268;SDS011;56517;51.634;5.566;2022-10-31T15:42:30;30.63;;;14.63;;
62268;SDS011;56517;51.634;5.566;2022-10-31T15:47:32;28.63;;;14.68;;
62268;SDS011;56517;51.634;5.566;2022-10-31T15:52:35;33.80;;;14.15;;
62268;SDS011;56517;51.634;5.566;2022-10-31T15:57:40;28.38;;;13.50;;
62268;SDS011;56517;51.634;5.566;2022-10-31T16:02:42;27.10;;;14.40;;
62268;SDS011;56517;51.634;5.566;2022-10-31T16:07:47;32.03;;;13.93;;
62268;SDS011;56517;51.634;5.566;2022-10-31T16:12:50;38.22;;;15.68;;
62268;SDS011;56517;51.634;5.566;2022-10-31T16:17:50;28.02;;;15.25;;
62268;SDS011;56517;51.634;5.566;2022-10-31T16:22:51;29.48;;;14.60;;
62268;SDS011;56517;51.634;5.566;2022-10-31T16:27:54;35.88;;;15.05;;
62268;SDS011;56517;51.634;5.566;2022-10-31T16:32:56;34.35;;;15.88;;
62268;SDS011;56517;51.634;5.566;2022-10-31T16:37:58;35.58;;;16.23;;
62268;SDS011;56517;51.634;5.566;2022-10-31T16:43:00;34.90;;;15.45;;
62268;SDS011;56517;51.634;5.566;2022-10-31T16:48:02;28.40;;;14.13;;
62268;SDS011;56517;51.634;5.566;2022-10-31T16:53:03;30.88;;;14.65;;
62268;SDS011;56517;51.634;5.566;2022-10-31T16:58:05;25.58;;;13.05;;
62268;SDS011;56517;51.634;5.566;2022-10-31T17:03:09;26.70;;;11.98;;
62268;SDS011;56517;51.634;5.566;2022-10-31T17:08:10;27.77;;;13.30;;
62268;SDS011;56517;51.634;5.566;2022-10-31T17:13:15;22.83;;;10.68;;
62268;SDS011;56517;51.634;5.566;2022-10-31T17:18:18;23.88;;;11.90;;
62268;SDS011;56517;51.634;5.566;2022-10-31T17:23:18;22.45;;;11.23;;
62268;SDS011;56517;51.634;5.566;2022-10-31T17:28:20;22.15;;;9.95;;
62268;SDS011;56517;51.634;5.566;2022-10-31T17:33:21;19.33;;;10.07;;
62268;SDS011;56517;51.634;5.566;2022-10-31T17:38:21;19.48;;;9.52;;
62268;SDS011;56517;51.634;5.566;2022-10-31T17:43:23;14.55;;;9.10;;
62268;SDS011;56517;51.634;5.566;2022-10-31T17:48:24;17.48;;;9.82;;
62268;SDS011;56517;51.634;5.566;2022-10-31T17:53:24;19.92;;;8.77;;
62268;SDS011;56517;51.634;5.566;2022-10-31T17:58:28;23.63;;;9.25;;
62268;SDS011;56517;51.634;5.566;2022-10-31T18:03:31;17.95;;;10.25;;
62268;SDS011;56517;51.634;5.566;2022-10-31T18:08:32;21.85;;;10.45;;
62268;SDS011;56517;51.634;5.566;2022-10-31T18:13:35;16.00;;;9.45;;
62268;SDS011;56517;51.634;5.566;2022-10-31T18:18:35;15.35;;;8.40;;
62268;SDS011;56517;51.634;5.566;2022-10-31T18:23:36;15.23;;;9.20;;
62268;SDS011;56517;51.634;5.566;2022-10-31T18:28:38;17.02;;;9.57;;
62268;SDS011;56517;51.634;5.566;2022-10-31T18:33:39;17.30;;;9.45;;
62268;SDS011;56517;51.634;5.566;2022-10-31T18:38:40;18.90;;;9.20;;
62268;SDS011;56517;51.634;5.566;2022-10-31T18:43:42;17.58;;;8.73;;
62268;SDS011;56517;51.634;5.566;2022-10-31T18:48:43;20.17;;;9.23;;
62268;SDS011;56517;51.634;5.566;2022-10-31T18:53:48;20.05;;;9.73;;
62268;SDS011;56517;51.634;5.566;2022-10-31T18:58:50;17.50;;;8.85;;
62268;SDS011;56517;51.634;5.566;2022-10-31T19:03:51;20.70;;;10.13;;
62268;SDS011;56517;51.634;5.566;2022-10-31T19:08:55;18.45;;;8.63;;
62268;SDS011;56517;51.634;5.566;2022-10-31T19:13:57;23.55;;;9.43;;
62268;SDS011;56517;51.634;5.566;2022-10-31T19:18:58;16.00;;;9.20;;
62268;SDS011;56517;51.634;5.566;2022-10-31T19:23:59;14.27;;;9.38;;
62268;SDS011;56517;51.634;5.566;2022-10-31T19:29:01;15.63;;;9.18;;
62268;SDS011;56517;51.634;5.566;2022-10-31T19:34:01;20.67;;;9.90;;
62268;SDS011;56517;51.634;5.566;2022-10-31T19:39:02;17.48;;;9.15;;
62268;SDS011;56517;51.634;5.566;2022-10-31T19:44:04;14.18;;;8.35;;
62268;SDS011;56517;51.634;5.566;2022-10-31T19:49:04;16.33;;;8.57;;
62268;SDS011;56517;51.634;5.566;2022-10-31T19:54:05;16.38;;;8.88;;
62268;SDS011;56517;51.634;5.566;2022-10-31T19:59:07;23.25;;;9.32;;
62268;SDS011;56517;51.634;5.566;2022-10-31T20:04:08;21.73;;;9.98;;
62268;SDS011;56517;51.634;5.566;2022-10-31T20:09:09;14.38;;;8.45;;
62268;SDS011;56517;51.634;5.566;2022-10-31T20:14:12;14.90;;;8.23;;
62268;SDS011;56517;51.634;5.566;2022-10-31T20:19:13;16.98;;;8.98;;
62268;SDS011;56517;51.634;5.566;2022-10-31T20:24:13;16.40;;;9.30;;
62268;SDS011;56517;51.634;5.566;2022-10-31T20:29:15;15.05;;;9.02;;
62268;SDS011;56517;51.634;5.566;2022-10-31T20:34:16;15.48;;;8.55;;
62268;SDS011;56517;51.634;5.566;2022-10-31T20:39:16;16.48;;;9.30;;
62268;SDS011;56517;51.634;5.566;2022-10-31T20:44:18;19.13;;;9.05;;
62268;SDS011;56517;51.634;5.566;2022-10-31T20:49:19;18.73;;;8.70;;
62268;SDS011;56517;51.634;5.566;2022-10-31T20:54:19;17.88;;;9.15;;
62268;SDS011;56517;51.634;5.566;2022-10-31T20:59:21;14.73;;;9.18;;
62268;SDS011;56517;51.634;5.566;2022-10-31T21:04:22;14.88;;;8.50;;
62268;SDS011;56517;51.634;5.566;2022-10-31T21:09:22;13.90;;;8.55;;
62268;SDS011;56517;51.634;5.566;2022-10-31T21:14:27;17.38;;;8.30;;
62268;SDS011;56517;51.634;5.566;2022-10-31T21:19:28;15.98;;;8.88;;
62268;SDS011;56517;51.634;5.566;2022-10-31T21:24:28;13.43;;;8.50;;
62268;SDS011;56517;51.634;5.566;2022-10-31T21:29:30;15.38;;;9.07;;
62268;SDS011;56517;51.634;5.566;2022-10-31T21:34:31;20.20;;;9.63;;
62268;SDS011;56517;51.634;5.566;2022-10-31T21:39:31;19.20;;;8.52;;
62268;SDS011;56517;51.634;5.566;2022-10-31T21:44:33;12.55;;;8.27;;
62268;SDS011;56517;51.634;5.566;2022-10-31T21:49:34;18.67;;;9.13;;
62268;SDS011;56517;51.634;5.566;2022-10-31T21:54:34;13.73;;;9.10;;
62268;SDS011;56517;51.634;5.566;2022-10-31T21:59:36;15.50;;;9.15;;
62268;SDS011;56517;51.634;5.566;2022-10-31T22:04:37;12.43;;;7.88;;
62268;SDS011;56517;51.634;5.566;2022-10-31T22:09:37;13.68;;;8.45;;
62268;SDS011;56517;51.634;5.566;2022-10-31T22:14:39;16.40;;;7.55;;
62268;SDS011;56517;51.634;5.566;2022-10-31T22:19:40;16.63;;;7.82;;
62268;SDS011;56517;51.634;5.566;2022-10-31T22:24:41;10.95;;;7.40;;
62268;SDS011;56517;51.634;5.566;2022-10-31T22:29:42;14.10;;;8.13;;
62268;SDS011;56517;51.634;5.566;2022-10-31T22:34:43;15.10;;;7.85;;
62268;SDS011;56517;51.634;5.566;2022-10-31T22:39:44;15.27;;;7.90;;
62268;SDS011;56517;51.634;5.566;2022-10-31T22:44:45;14.30;;;7.80;;
62268;SDS011;56517;51.634;5.566;2022-10-31T22:49:46;15.57;;;8.63;;
62268;SDS011;56517;51.634;5.566;2022-10-31T22:54:47;13.70;;;7.82;;
62268;SDS011;56517;51.634;5.566;2022-10-31T22:59:48;18.45;;;7.95;;
62268;SDS011;56517;51.634;5.566;2022-10-31T23:04:49;13.73;;;8.52;;
62268;SDS011;56517;51.634;5.566;2022-10-31T23:09:50;14.32;;;8.25;;
62268;SDS011;56517;51.634;5.566;2022-10-31T23:14:51;17.20;;;10.15;;
62268;SDS011;56517;51.634;5.566;2022-10-31T23:19:52;15.15;;;8.63;;
62268;SDS011;56517;51.634;5.566;2022-10-31T23:24:53;12.98;;;7.45;;
62268;SDS011;56517;51.634;5.566;2022-10-31T23:29:55;13.82;;;8.32;;
62268;SDS011;56517;51.634;5.566;2022-10-31T23:34:56;16.85;;;8.63;;
62268;SDS011;56517;51.634;5.566;2022-10-31T23:39:57;16.40;;;9.05;;
62268;SDS011;56517;51.634;5.566;2022-10-31T23:44:59;15.98;;;8.63;;
62268;SDS011;56517;51.634;5.566;2022-10-31T23:50:00;18.33;;;9.07;;
62268;SDS011;56517;51.634;5.566;2022-10-31T23:55:00;17.33;;;8.30;;
